createdAt,value
2019-02-02T00:00:08.746Z,915.78
2019-02-02T00:01:16.766Z,915.71
2019-02-02T00:02:24.837Z,915.65
2019-02-02T00:03:32.865Z,915.65
2019-02-02T00:04:40.930Z,915.57
2019-02-02T00:05:49.069Z,915.59
2019-02-02T00:06:57.026Z,915.55
2019-02-02T00:08:05.088Z,915.51
2019-02-02T00:09:13.146Z,915.47
2019-02-02T00:10:21.271Z,915.45
2019-02-02T00:11:29.270Z,915.38
2019-02-02T00:12:37.310Z,915.28
2019-02-02T00:13:45.369Z,915.29
2019-02-02T00:14:53.513Z,915.27
2019-02-02T00:16:01.577Z,915.33
2019-02-02T00:17:09.560Z,915.32
2019-02-02T00:18:17.631Z,915.36
2019-02-02T00:19:25.646Z,915.31
2019-02-02T00:20:33.752Z,915.28
2019-02-02T00:21:41.761Z,915.24
2019-02-02T00:22:49.825Z,915.25
2019-02-02T00:23:57.879Z,915.18
2019-02-02T00:25:05.931Z,915.20
2019-02-02T00:26:14.038Z,915.24
2019-02-02T00:27:22.041Z,915.26
2019-02-02T00:28:30.100Z,915.26
2019-02-02T00:29:38.163Z,915.28
2019-02-02T00:30:46.305Z,915.33
2019-02-02T00:31:54.266Z,915.33
2019-02-02T00:33:02.360Z,915.35
2019-02-02T00:34:10.388Z,915.34
2019-02-02T00:35:18.454Z,915.29
2019-02-02T00:36:26.559Z,915.34
2019-02-02T00:37:34.554Z,915.36
2019-02-02T00:38:42.629Z,915.31
2019-02-02T00:39:50.675Z,915.34
2019-02-02T00:40:58.784Z,915.40
2019-02-02T00:42:06.792Z,915.39
2019-02-02T00:43:14.867Z,915.39
2019-02-02T00:44:22.881Z,915.37
2019-02-02T00:45:30.955Z,915.36
2019-02-02T00:46:39.100Z,915.36
2019-02-02T00:47:47.082Z,915.33
2019-02-02T00:48:55.141Z,915.35
2019-02-02T00:50:03.188Z,915.40
2019-02-02T00:51:11.343Z,915.38
2019-02-02T00:52:19.292Z,915.38
2019-02-02T00:53:27.353Z,915.43
2019-02-02T00:54:35.421Z,915.46
2019-02-02T00:55:43.470Z,915.45
2019-02-02T00:56:51.535Z,915.44
2019-02-02T00:57:59.727Z,915.44
2019-02-02T00:59:07.640Z,915.49
2019-02-02T01:00:15.708Z,915.48
2019-02-02T01:01:23.801Z,915.47
2019-02-02T01:02:31.902Z,915.51
2019-02-02T01:03:39.871Z,915.52
2019-02-02T01:04:47.922Z,915.50
2019-02-02T01:05:55.988Z,915.52
2019-02-02T01:07:04.050Z,915.55
2019-02-02T01:08:12.091Z,915.47
2019-02-02T01:09:20.163Z,915.42
2019-02-02T01:10:28.203Z,915.42
2019-02-02T01:11:36.368Z,915.43
2019-02-02T01:12:44.298Z,915.44
2019-02-02T01:13:52.379Z,915.39
2019-02-02T01:15:00.442Z,915.46
2019-02-02T01:16:08.503Z,915.46
2019-02-02T01:17:16.562Z,915.45
2019-02-02T01:18:24.681Z,915.44
2019-02-02T01:19:32.670Z,915.45
2019-02-02T01:20:40.712Z,915.50
2019-02-02T01:21:48.864Z,915.52
2019-02-02T01:22:56.833Z,915.56
2019-02-02T01:24:04.883Z,915.59
2019-02-02T01:25:12.944Z,915.64
2019-02-02T01:26:21.107Z,915.67
2019-02-02T01:27:29.060Z,915.66
2019-02-02T01:28:37.129Z,915.67
2019-02-02T01:29:45.180Z,915.68
2019-02-02T01:30:53.240Z,915.67
2019-02-02T01:32:01.354Z,915.67
2019-02-02T01:33:09.427Z,915.69
2019-02-02T01:34:17.401Z,915.67
2019-02-02T01:35:25.453Z,915.69
2019-02-02T01:36:33.599Z,915.63
2019-02-02T01:37:41.580Z,915.61
2019-02-02T01:38:49.621Z,915.58
2019-02-02T01:39:57.674Z,915.61
2019-02-02T01:41:05.732Z,915.60
2019-02-02T01:42:13.827Z,915.58
2019-02-02T01:43:21.845Z,915.56
2019-02-02T01:44:29.912Z,915.49
2019-02-02T01:45:37.972Z,915.44
2019-02-02T01:46:46.066Z,915.36
2019-02-02T01:47:54.165Z,915.34
2019-02-02T01:49:02.153Z,915.28
2019-02-02T01:50:10.200Z,915.31
2019-02-02T01:51:18.267Z,915.30
2019-02-02T01:52:26.399Z,915.29
2019-02-02T01:53:34.352Z,915.35
2019-02-02T01:54:42.416Z,915.32
2019-02-02T01:55:50.502Z,915.37
2019-02-02T01:56:58.665Z,915.38
2019-02-02T01:58:16.291Z,915.41
2019-02-02T01:59:14.729Z,915.46
2019-02-02T02:00:22.692Z,915.41
2019-02-02T02:01:30.771Z,915.45
2019-02-02T02:02:38.906Z,915.42
2019-02-02T02:03:47.150Z,915.40
2019-02-02T02:04:57.258Z,915.39
2019-02-02T02:06:03.556Z,915.35
2019-02-02T02:07:11.941Z,915.33
2019-02-02T02:08:19.319Z,915.33
2019-02-02T02:09:27.151Z,915.34
2019-02-02T02:10:35.231Z,915.31
2019-02-02T02:11:43.256Z,915.32
2019-02-02T02:12:51.375Z,915.31
2019-02-02T02:13:59.386Z,915.33
2019-02-02T02:15:07.453Z,915.41
2019-02-02T02:16:15.490Z,915.44
2019-02-02T02:17:23.676Z,915.45
2019-02-02T02:18:31.586Z,915.48
2019-02-02T02:19:39.701Z,915.49
2019-02-02T02:20:47.806Z,915.54
2019-02-02T02:21:55.762Z,915.56
2019-02-02T02:23:03.868Z,915.52
2019-02-02T02:24:11.871Z,915.48
2019-02-02T02:25:19.944Z,915.45
2019-02-02T02:26:27.984Z,915.42
2019-02-02T02:27:36.140Z,915.36
2019-02-02T02:28:44.098Z,915.36
2019-02-02T02:29:52.165Z,915.36
2019-02-02T02:31:00.227Z,915.31
2019-02-02T02:32:08.281Z,915.32
2019-02-02T02:33:16.440Z,915.35
2019-02-02T02:34:24.376Z,915.42
2019-02-02T02:35:32.450Z,915.45
2019-02-02T02:36:40.551Z,915.47
2019-02-02T02:37:48.666Z,915.53
2019-02-02T02:38:56.621Z,915.54
2019-02-02T02:40:04.702Z,915.53
2019-02-02T02:41:12.739Z,915.56
2019-02-02T02:42:20.783Z,915.62
2019-02-02T02:43:28.832Z,915.65
2019-02-02T02:44:36.901Z,915.71
2019-02-02T02:45:44.977Z,915.71
2019-02-02T02:46:53.015Z,915.75
2019-02-02T02:48:01.106Z,915.74
2019-02-02T02:49:09.134Z,915.72
2019-02-02T02:50:17.173Z,915.70
2019-02-02T02:51:25.251Z,915.68
2019-02-02T02:52:33.344Z,915.66
2019-02-02T02:53:41.350Z,915.67
2019-02-02T02:54:49.414Z,915.66
2019-02-02T02:55:57.469Z,915.60
2019-02-02T02:57:05.517Z,915.59
2019-02-02T02:58:13.608Z,915.56
2019-02-02T02:59:21.639Z,915.59
2019-02-02T03:00:29.716Z,915.53
2019-02-02T03:01:37.837Z,915.55
2019-02-02T03:02:45.798Z,915.52
2019-02-02T03:03:53.829Z,915.51
2019-02-02T03:05:01.938Z,915.56
2019-02-02T03:06:09.978Z,915.63
2019-02-02T03:07:19.484Z,915.75
2019-02-02T03:08:26.164Z,915.83
2019-02-02T03:09:34.112Z,915.90
2019-02-02T03:10:42.178Z,915.91
2019-02-02T03:11:50.243Z,915.92
2019-02-02T03:12:58.305Z,915.90
2019-02-02T03:14:06.362Z,915.88
2019-02-02T03:15:26.700Z,915.89
2019-02-02T03:16:23.487Z,915.86
2019-02-02T03:17:31.544Z,915.87
2019-02-02T03:18:39.638Z,915.81
2019-02-02T03:19:47.652Z,915.80
2019-02-02T03:20:55.687Z,915.81
2019-02-02T03:22:03.760Z,915.83
2019-02-02T03:23:11.912Z,915.79
2019-02-02T03:24:19.973Z,915.74
2019-02-02T03:25:27.915Z,915.70
2019-02-02T03:26:36.015Z,915.64
2019-02-02T03:27:44.018Z,915.60
2019-02-02T03:28:53.301Z,915.64
2019-02-02T03:30:00.165Z,915.74
2019-02-02T03:31:08.205Z,915.82
2019-02-02T03:32:16.273Z,915.87
2019-02-02T03:33:24.403Z,915.96
2019-02-02T03:34:32.376Z,916.06
2019-02-02T03:35:40.447Z,916.18
2019-02-02T03:36:48.498Z,916.24
2019-02-02T03:37:56.542Z,916.27
2019-02-02T03:39:04.636Z,916.30
2019-02-02T03:40:12.751Z,916.20
2019-02-02T03:41:20.710Z,916.19
2019-02-02T03:42:28.770Z,916.15
2019-02-02T03:43:36.866Z,916.09
2019-02-02T03:44:44.887Z,916.14
2019-02-02T03:45:52.955Z,916.13
2019-02-02T03:47:00.993Z,916.15
2019-02-02T03:48:09.078Z,916.20
2019-02-02T03:49:17.204Z,916.24
2019-02-02T03:50:25.167Z,916.25
2019-02-02T03:51:33.222Z,916.34
2019-02-02T03:52:41.274Z,916.45
2019-02-02T03:53:49.439Z,916.47
2019-02-02T03:54:57.397Z,916.46
2019-02-02T03:56:05.541Z,916.40
2019-02-02T03:57:13.497Z,916.33
2019-02-02T03:58:21.566Z,916.29
2019-02-02T03:59:29.700Z,916.21
2019-02-02T04:00:37.689Z,916.15
2019-02-02T04:01:45.725Z,916.10
2019-02-02T04:02:53.769Z,916.11
2019-02-02T04:04:01.934Z,916.10
2019-02-02T04:05:09.960Z,916.15
2019-02-02T04:06:17.961Z,916.18
2019-02-02T04:07:26.005Z,916.25
2019-02-02T04:08:34.059Z,916.24
2019-02-02T04:09:42.183Z,916.28
2019-02-02T04:10:50.185Z,916.31
2019-02-02T04:11:58.348Z,916.37
2019-02-02T04:13:06.538Z,916.41
2019-02-02T04:14:14.585Z,916.39
2019-02-02T04:15:22.646Z,916.37
2019-02-02T04:16:30.672Z,916.35
2019-02-02T04:17:38.738Z,916.35
2019-02-02T04:18:46.779Z,916.33
2019-02-02T04:19:54.924Z,916.26
2019-02-02T04:21:02.881Z,916.20
2019-02-02T04:22:10.955Z,916.22
2019-02-02T04:23:18.993Z,916.23
2019-02-02T04:24:27.118Z,916.27
2019-02-02T04:25:35.119Z,916.27
2019-02-02T04:26:43.167Z,916.26
2019-02-02T04:27:51.344Z,916.22
2019-02-02T04:28:59.278Z,916.16
2019-02-02T04:30:07.447Z,916.20
2019-02-02T04:31:15.391Z,916.14
2019-02-02T04:32:23.473Z,916.21
2019-02-02T04:33:31.523Z,916.28
2019-02-02T04:34:39.676Z,916.32
2019-02-02T04:35:47.629Z,916.40
2019-02-02T04:36:55.669Z,916.49
2019-02-02T04:38:03.757Z,916.51
2019-02-02T04:39:11.795Z,916.58
2019-02-02T04:40:19.909Z,916.60
2019-02-02T04:41:27.918Z,916.60
2019-02-02T04:42:36.015Z,916.61
2019-02-02T04:43:43.993Z,916.59
2019-02-02T04:44:52.135Z,916.66
2019-02-02T04:46:00.205Z,916.67
2019-02-02T04:47:08.219Z,916.78
2019-02-02T04:48:16.259Z,916.79
2019-02-02T04:49:24.296Z,916.84
2019-02-02T04:50:32.371Z,916.80
2019-02-02T04:51:40.442Z,916.69
2019-02-02T04:52:48.486Z,916.57
2019-02-02T04:53:58.051Z,916.62
2019-02-02T04:55:04.642Z,916.66
2019-02-02T04:56:12.660Z,916.73
2019-02-02T04:57:20.727Z,916.77
2019-02-02T04:58:28.837Z,916.78
2019-02-02T04:59:36.821Z,916.69
2019-02-02T05:00:44.914Z,916.73
2019-02-02T05:01:52.983Z,916.76
2019-02-02T05:03:00.976Z,916.86
2019-02-02T05:04:09.064Z,916.91
2019-02-02T05:05:17.154Z,917.00
2019-02-02T05:06:25.161Z,917.00
2019-02-02T05:07:33.227Z,917.02
2019-02-02T05:08:41.271Z,916.98
2019-02-02T05:09:49.354Z,916.94
2019-02-02T05:10:57.385Z,916.90
2019-02-02T05:12:05.453Z,916.94
2019-02-02T05:13:13.563Z,916.85
2019-02-02T05:14:21.570Z,916.93
2019-02-02T05:15:29.722Z,916.88
2019-02-02T05:16:37.822Z,916.88
2019-02-02T05:17:45.735Z,916.84
2019-02-02T05:18:53.786Z,916.83
2019-02-02T05:20:01.937Z,916.82
2019-02-02T05:21:09.888Z,916.86
2019-02-02T05:22:17.969Z,916.94
2019-02-02T05:23:26.010Z,916.93
2019-02-02T05:24:34.099Z,916.94
2019-02-02T05:25:42.229Z,916.94
2019-02-02T05:26:50.193Z,916.96
2019-02-02T05:27:58.342Z,916.98
2019-02-02T05:29:06.306Z,917.02
2019-02-02T05:30:14.432Z,917.02
2019-02-02T05:31:22.418Z,917.03
2019-02-02T05:32:30.473Z,917.05
2019-02-02T05:33:38.516Z,917.04
2019-02-02T05:34:46.605Z,917.07
2019-02-02T05:35:54.677Z,917.04
2019-02-02T05:37:02.706Z,917.04
2019-02-02T05:38:11.066Z,917.02
2019-02-02T05:39:18.817Z,917.01
2019-02-02T05:40:26.970Z,916.92
2019-02-02T05:41:34.930Z,916.93
2019-02-02T05:42:43.085Z,916.93
2019-02-02T05:43:51.041Z,916.94
2019-02-02T05:44:59.103Z,916.99
2019-02-02T05:46:07.258Z,917.06
2019-02-02T05:47:15.216Z,917.09
2019-02-02T05:48:23.263Z,917.13
2019-02-02T05:49:31.342Z,917.20
2019-02-02T05:50:39.482Z,917.22
2019-02-02T05:51:47.444Z,917.23
2019-02-02T05:52:55.488Z,917.25
2019-02-02T05:54:03.570Z,917.24
2019-02-02T05:55:11.604Z,917.26
2019-02-02T05:56:19.729Z,917.25
2019-02-02T05:57:27.718Z,917.26
2019-02-02T05:58:35.869Z,917.31
2019-02-02T05:59:52.424Z,917.38
2019-02-02T06:00:51.978Z,917.44
2019-02-02T06:01:59.948Z,917.44
2019-02-02T06:03:07.993Z,917.44
2019-02-02T06:04:17.067Z,917.44
2019-02-02T06:05:24.304Z,917.44
2019-02-02T06:06:32.520Z,917.48
2019-02-02T06:07:40.234Z,917.55
2019-02-02T06:08:48.284Z,917.58
2019-02-02T06:09:56.347Z,917.59
2019-02-02T06:11:04.430Z,917.60
2019-02-02T06:12:12.460Z,917.54
2019-02-02T06:13:20.510Z,917.54
2019-02-02T06:14:29.008Z,917.57
2019-02-02T06:15:36.616Z,917.57
2019-02-02T06:16:44.733Z,917.56
2019-02-02T06:17:52.738Z,917.57
2019-02-02T06:19:00.775Z,917.51
2019-02-02T06:20:08.844Z,917.52
2019-02-02T06:21:16.963Z,917.50
2019-02-02T06:22:24.983Z,917.53
2019-02-02T06:23:33.002Z,917.53
2019-02-02T06:24:41.088Z,917.53
2019-02-02T06:25:49.102Z,917.57
2019-02-02T06:26:57.223Z,917.54
2019-02-02T06:28:05.223Z,917.56
2019-02-02T06:29:13.297Z,917.50
2019-02-02T06:30:21.404Z,917.51
2019-02-02T06:31:29.452Z,917.56
2019-02-02T06:32:37.466Z,917.51
2019-02-02T06:33:45.510Z,917.53
2019-02-02T06:34:53.571Z,917.52
2019-02-02T06:36:03.551Z,917.51
2019-02-02T06:37:10.216Z,917.50
2019-02-02T06:38:17.947Z,917.47
2019-02-02T06:39:25.797Z,917.49
2019-02-02T06:40:33.879Z,917.48
2019-02-02T06:41:42.153Z,917.55
2019-02-02T06:42:49.975Z,917.57
2019-02-02T06:43:58.021Z,917.59
2019-02-02T06:45:06.177Z,917.65
2019-02-02T06:46:14.143Z,917.63
2019-02-02T06:47:22.189Z,917.61
2019-02-02T06:48:30.253Z,917.58
2019-02-02T06:49:38.307Z,917.60
2019-02-02T06:50:46.393Z,917.61
2019-02-02T06:51:54.642Z,917.70
2019-02-02T06:53:02.473Z,917.68
2019-02-02T06:54:10.538Z,917.73
2019-02-02T06:55:18.577Z,917.75
2019-02-02T06:56:26.645Z,917.82
2019-02-02T06:57:34.710Z,917.84
2019-02-02T06:58:42.767Z,917.86
2019-02-02T06:59:50.807Z,917.89
2019-02-02T07:00:58.974Z,917.90
2019-02-02T07:02:06.987Z,917.93
2019-02-02T07:03:14.980Z,917.95
2019-02-02T07:04:23.065Z,917.98
2019-02-02T07:05:33.689Z,918.03
2019-02-02T07:06:39.179Z,918.05
2019-02-02T07:07:47.234Z,918.06
2019-02-02T07:08:55.288Z,918.09
2019-02-02T07:10:03.338Z,918.14
2019-02-02T07:11:11.378Z,918.17
2019-02-02T07:12:19.495Z,918.16
2019-02-02T07:13:27.504Z,918.21
2019-02-02T07:14:35.555Z,918.22
2019-02-02T07:15:43.600Z,918.21
2019-02-02T07:16:51.764Z,918.25
2019-02-02T07:17:59.732Z,918.28
2019-02-02T07:19:07.778Z,918.29
2019-02-02T07:20:16.011Z,918.30
2019-02-02T07:21:23.883Z,918.38
2019-02-02T07:22:32.273Z,918.46
2019-02-02T07:23:40.034Z,918.50
2019-02-02T07:24:50.015Z,918.54
2019-02-02T07:25:56.350Z,918.50
2019-02-02T07:27:04.249Z,918.55
2019-02-02T07:28:12.283Z,918.58
2019-02-02T07:29:20.276Z,918.65
2019-02-02T07:30:29.254Z,918.64
2019-02-02T07:31:36.389Z,918.70
2019-02-02T07:32:44.522Z,918.71
2019-02-02T07:33:52.501Z,918.73
2019-02-02T07:35:00.674Z,918.76
2019-02-02T07:36:08.628Z,918.79
2019-02-02T07:37:16.735Z,918.81
2019-02-02T07:38:24.734Z,918.85
2019-02-02T07:39:32.800Z,918.83
2019-02-02T07:40:40.842Z,918.83
2019-02-02T07:41:48.907Z,918.83
2019-02-02T07:42:57.078Z,918.85
2019-02-02T07:44:05.001Z,918.91
2019-02-02T07:45:13.670Z,918.90
2019-02-02T07:46:21.358Z,918.91
2019-02-02T07:47:30.150Z,918.93
2019-02-02T07:48:37.239Z,918.93
2019-02-02T07:49:45.309Z,918.95
2019-02-02T07:50:53.739Z,918.98
2019-02-02T07:52:01.488Z,918.96
2019-02-02T07:53:09.780Z,919.04
2019-02-02T07:54:17.843Z,918.98
2019-02-02T07:55:25.613Z,919.03
2019-02-02T07:56:33.648Z,919.02
2019-02-02T07:57:41.807Z,919.06
2019-02-02T07:58:49.764Z,919.09
2019-02-02T07:59:58.124Z,919.14
2019-02-02T08:01:05.874Z,919.16
2019-02-02T08:02:14.161Z,919.23
2019-02-02T08:03:22.096Z,919.22
2019-02-02T08:04:30.156Z,919.22
2019-02-02T08:05:38.366Z,919.29
2019-02-02T08:06:46.402Z,919.24
2019-02-02T08:07:54.409Z,919.27
2019-02-02T08:09:02.407Z,919.32
2019-02-02T08:10:10.327Z,919.32
2019-02-02T08:11:18.392Z,919.32
2019-02-02T08:12:26.449Z,919.35
2019-02-02T08:13:34.530Z,919.36
2019-02-02T08:14:42.795Z,919.35
2019-02-02T08:15:50.626Z,919.37
2019-02-02T08:16:59.007Z,919.42
2019-02-02T08:18:06.846Z,919.42
2019-02-02T08:19:14.799Z,919.45
2019-02-02T08:20:22.849Z,919.47
2019-02-02T08:21:31.233Z,919.46
2019-02-02T08:22:39.099Z,919.47
2019-02-02T08:23:47.535Z,919.47
2019-02-02T08:24:55.570Z,919.47
2019-02-02T08:26:03.530Z,919.44
2019-02-02T08:27:11.656Z,919.45
2019-02-02T08:28:21.628Z,919.52
2019-02-02T08:29:27.406Z,919.52
2019-02-02T08:30:36.204Z,919.50
2019-02-02T08:31:43.594Z,919.53
2019-02-02T08:32:51.479Z,919.54
2019-02-02T08:34:00.321Z,919.52
2019-02-02T08:35:07.593Z,919.52
2019-02-02T08:36:15.660Z,919.54
2019-02-02T08:37:23.690Z,919.50
2019-02-02T08:38:31.802Z,919.54
2019-02-02T08:39:39.817Z,919.55
2019-02-02T08:40:47.870Z,919.55
2019-02-02T08:41:55.931Z,919.57
2019-02-02T08:43:03.972Z,919.57
2019-02-02T08:44:12.153Z,919.58
2019-02-02T08:45:20.092Z,919.60
2019-02-02T08:46:28.164Z,919.65
2019-02-02T08:47:36.235Z,919.69
2019-02-02T08:48:44.370Z,919.67
2019-02-02T08:49:52.348Z,919.71
2019-02-02T08:51:00.419Z,919.70
2019-02-02T08:52:08.519Z,919.74
2019-02-02T08:53:16.637Z,919.71
2019-02-02T08:54:24.584Z,919.73
2019-02-02T08:55:32.661Z,919.73
2019-02-02T08:56:40.728Z,919.73
2019-02-02T08:57:48.810Z,919.73
2019-02-02T08:58:56.897Z,919.78
2019-02-02T09:00:05.003Z,919.80
2019-02-02T09:01:13.558Z,919.82
2019-02-02T09:02:20.971Z,919.88
2019-02-02T09:03:29.055Z,919.87
2019-02-02T09:04:37.301Z,919.90
2019-02-02T09:05:45.352Z,919.91
2019-02-02T09:06:53.802Z,919.91
2019-02-02T09:08:01.627Z,919.88
2019-02-02T09:09:09.414Z,919.92
2019-02-02T09:10:18.004Z,919.94
2019-02-02T09:11:25.734Z,919.96
2019-02-02T09:12:34.779Z,920.01
2019-02-02T09:13:41.647Z,920.02
2019-02-02T09:14:49.614Z,920.01
2019-02-02T09:15:57.674Z,920.04
2019-02-02T09:17:05.864Z,920.03
2019-02-02T09:18:13.768Z,920.02
2019-02-02T09:19:21.929Z,920.02
2019-02-02T09:20:29.882Z,920.06
2019-02-02T09:21:37.957Z,920.08
2019-02-02T09:22:45.983Z,920.14
2019-02-02T09:23:54.132Z,920.14
2019-02-02T09:25:02.127Z,920.13
2019-02-02T09:26:10.166Z,920.17
2019-02-02T09:27:18.245Z,920.19
2019-02-02T09:28:26.530Z,920.17
2019-02-02T09:29:34.866Z,920.18
2019-02-02T09:30:44.490Z,920.21
2019-02-02T09:31:50.503Z,920.24
2019-02-02T09:32:58.523Z,920.21
2019-02-02T09:34:06.725Z,920.30
2019-02-02T09:35:14.827Z,920.31
2019-02-02T09:36:22.900Z,920.35
2019-02-02T09:37:30.758Z,920.40
2019-02-02T09:38:38.824Z,920.44
2019-02-02T09:39:46.971Z,920.51
2019-02-02T09:40:54.996Z,920.53
2019-02-02T09:42:02.986Z,920.56
2019-02-02T09:43:11.495Z,920.55
2019-02-02T09:44:19.140Z,920.58
2019-02-02T09:45:27.586Z,920.60
2019-02-02T09:46:35.219Z,920.58
2019-02-02T09:47:45.121Z,920.54
2019-02-02T09:48:51.390Z,920.57
2019-02-02T09:49:59.509Z,920.59
2019-02-02T09:51:07.839Z,920.57
2019-02-02T09:52:17.297Z,920.57
2019-02-02T09:53:23.570Z,920.63
2019-02-02T09:54:32.504Z,920.64
2019-02-02T09:55:40.090Z,920.66
2019-02-02T09:56:47.740Z,920.68
2019-02-02T09:57:55.793Z,920.68
2019-02-02T09:59:03.932Z,920.73
2019-02-02T10:00:11.905Z,920.75
2019-02-02T10:01:27.303Z,920.76
2019-02-02T10:02:28.160Z,920.74
2019-02-02T10:03:36.073Z,920.76
2019-02-02T10:04:44.236Z,920.78
2019-02-02T10:05:52.213Z,920.76
2019-02-02T10:07:00.257Z,920.77
2019-02-02T10:08:08.329Z,920.79
2019-02-02T10:09:16.380Z,920.89
2019-02-02T10:10:24.606Z,920.95
2019-02-02T10:11:32.515Z,920.93
2019-02-02T10:12:41.450Z,920.98
2019-02-02T10:13:48.603Z,921.00
2019-02-02T10:14:57.056Z,921.05
2019-02-02T10:16:04.800Z,920.96
2019-02-02T10:17:12.770Z,920.97
2019-02-02T10:18:20.837Z,921.03
2019-02-02T10:19:28.901Z,921.04
2019-02-02T10:20:36.944Z,921.05
2019-02-02T10:21:45.101Z,921.08
2019-02-02T10:22:53.599Z,921.11
2019-02-02T10:24:01.723Z,921.08
2019-02-02T10:25:09.449Z,921.08
2019-02-02T10:26:17.244Z,921.10
2019-02-02T10:27:25.317Z,921.13
2019-02-02T10:28:33.398Z,921.09
2019-02-02T10:29:41.825Z,921.07
2019-02-02T10:30:50.558Z,921.10
2019-02-02T10:31:57.547Z,921.07
2019-02-02T10:33:05.986Z,921.08
2019-02-02T10:34:14.276Z,921.10
2019-02-02T10:35:22.712Z,921.13
2019-02-02T10:36:29.754Z,921.18
2019-02-02T10:37:37.827Z,921.22
2019-02-02T10:38:45.894Z,921.22
2019-02-02T10:39:53.931Z,921.17
2019-02-02T10:41:02.418Z,921.17
2019-02-02T10:42:10.564Z,921.17
2019-02-02T10:43:18.299Z,921.18
2019-02-02T10:44:26.792Z,921.22
2019-02-02T10:45:34.407Z,921.18
2019-02-02T10:46:42.328Z,921.15
2019-02-02T10:47:50.351Z,921.17
2019-02-02T10:48:58.391Z,921.14
2019-02-02T10:50:06.460Z,921.14
2019-02-02T10:51:14.518Z,921.17
2019-02-02T10:52:22.583Z,921.18
2019-02-02T10:53:30.720Z,921.19
2019-02-02T10:54:38.703Z,921.12
2019-02-02T10:55:46.860Z,921.11
2019-02-02T10:56:54.829Z,921.10
2019-02-02T10:58:02.878Z,921.02
2019-02-02T10:59:11.101Z,921.05
2019-02-02T11:00:19.025Z,921.05
2019-02-02T11:01:27.140Z,921.00
2019-02-02T11:02:35.128Z,920.99
2019-02-02T11:03:43.176Z,921.01
2019-02-02T11:04:53.405Z,921.05
2019-02-02T11:06:00.183Z,920.99
2019-02-02T11:07:07.384Z,921.01
2019-02-02T11:08:15.516Z,921.01
2019-02-02T11:09:23.552Z,920.98
2019-02-02T11:10:31.588Z,921.01
2019-02-02T11:11:39.602Z,921.02
2019-02-02T11:12:47.665Z,920.98
2019-02-02T11:13:55.728Z,920.98
2019-02-02T11:15:04.002Z,921.02
2019-02-02T11:16:11.987Z,921.03
2019-02-02T11:17:19.956Z,921.04
2019-02-02T11:18:28.052Z,921.02
2019-02-02T11:19:36.082Z,921.03
2019-02-02T11:20:46.818Z,920.98
2019-02-02T11:21:52.419Z,921.03
2019-02-02T11:23:00.342Z,920.94
2019-02-02T11:24:08.345Z,920.94
2019-02-02T11:25:16.373Z,920.88
2019-02-02T11:26:24.424Z,920.85
2019-02-02T11:27:32.604Z,920.81
2019-02-02T11:28:40.531Z,920.80
2019-02-02T11:29:48.677Z,920.74
2019-02-02T11:30:56.739Z,920.75
2019-02-02T11:32:04.673Z,920.76
2019-02-02T11:33:12.754Z,920.79
2019-02-02T11:34:20.856Z,920.85
2019-02-02T11:35:28.911Z,920.82
2019-02-02T11:36:37.031Z,920.87
2019-02-02T11:37:44.988Z,920.89
2019-02-02T11:38:53.055Z,920.95
2019-02-02T11:40:01.121Z,920.97
2019-02-02T11:41:09.251Z,920.97
2019-02-02T11:42:17.240Z,920.93
2019-02-02T11:43:25.285Z,920.98
2019-02-02T11:44:33.370Z,920.96
2019-02-02T11:45:41.412Z,920.96
2019-02-02T11:46:49.570Z,920.98
2019-02-02T11:47:57.546Z,920.93
2019-02-02T11:49:05.600Z,920.96
2019-02-02T11:50:13.884Z,920.94
2019-02-02T11:51:21.809Z,920.94
2019-02-02T11:52:29.780Z,920.93
2019-02-02T11:53:37.846Z,920.96
2019-02-02T11:54:45.901Z,920.97
2019-02-02T11:55:53.963Z,920.90
2019-02-02T11:57:02.046Z,920.87
2019-02-02T11:58:10.092Z,920.85
2019-02-02T11:59:18.147Z,920.85
2019-02-02T12:00:26.198Z,920.82
2019-02-02T12:01:34.335Z,920.82
2019-02-02T12:02:49.229Z,920.79
2019-02-02T12:03:50.376Z,920.75
2019-02-02T12:04:58.527Z,920.78
2019-02-02T12:06:06.477Z,920.81
2019-02-02T12:07:15.244Z,920.81
2019-02-02T12:08:22.612Z,920.84
2019-02-02T12:09:31.081Z,920.87
2019-02-02T12:10:38.746Z,920.89
2019-02-02T12:11:46.844Z,920.95
2019-02-02T12:12:54.871Z,920.96
2019-02-02T12:14:02.900Z,920.95
2019-02-02T12:15:10.966Z,920.96
2019-02-02T12:16:19.013Z,921.00
2019-02-02T12:17:27.170Z,921.01
2019-02-02T12:18:35.152Z,921.00
2019-02-02T12:19:43.182Z,920.97
2019-02-02T12:20:51.257Z,920.99
2019-02-02T12:21:59.342Z,920.96
2019-02-02T12:23:07.379Z,920.93
2019-02-02T12:24:16.283Z,920.89
2019-02-02T12:25:23.476Z,920.88
2019-02-02T12:26:31.551Z,920.85
2019-02-02T12:27:39.710Z,920.83
2019-02-02T12:28:47.717Z,920.83
2019-02-02T12:29:57.716Z,920.88
2019-02-02T12:31:03.755Z,920.92
2019-02-02T12:32:11.955Z,920.99
2019-02-02T12:33:19.954Z,920.97
2019-02-02T12:34:27.959Z,921.00
2019-02-02T12:35:36.018Z,920.99
2019-02-02T12:36:44.057Z,920.99
2019-02-02T12:37:52.179Z,921.00
2019-02-02T12:39:00.175Z,920.96
2019-02-02T12:40:08.248Z,920.94
2019-02-02T12:41:16.402Z,920.92
2019-02-02T12:42:24.408Z,920.94
2019-02-02T12:43:32.415Z,920.95
2019-02-02T12:44:40.936Z,920.99
2019-02-02T12:45:48.663Z,921.04
2019-02-02T12:46:56.597Z,921.14
2019-02-02T12:48:04.657Z,921.13
2019-02-02T12:49:12.731Z,921.21
2019-02-02T12:50:20.785Z,921.22
2019-02-02T12:51:28.844Z,921.27
2019-02-02T12:52:36.924Z,921.26
2019-02-02T12:53:44.964Z,921.26
2019-02-02T12:54:53.004Z,921.28
2019-02-02T12:56:01.590Z,921.27
2019-02-02T12:57:09.219Z,921.28
2019-02-02T12:58:17.180Z,921.29
2019-02-02T12:59:25.244Z,921.34
2019-02-02T13:00:33.288Z,921.41
2019-02-02T13:01:41.369Z,921.44
2019-02-02T13:02:49.511Z,921.49
2019-02-02T13:04:01.490Z,921.52
2019-02-02T13:05:05.542Z,921.57
2019-02-02T13:06:13.587Z,921.56
2019-02-02T13:07:21.841Z,921.56
2019-02-02T13:08:29.758Z,921.52
2019-02-02T13:09:37.755Z,921.57
2019-02-02T13:10:45.845Z,921.60
2019-02-02T13:11:56.031Z,921.59
2019-02-02T13:13:02.050Z,921.59
2019-02-02T13:14:09.996Z,921.55
2019-02-02T13:15:18.050Z,921.58
2019-02-02T13:16:26.115Z,921.60
2019-02-02T13:17:34.240Z,921.58
2019-02-02T13:18:42.280Z,921.59
2019-02-02T13:19:50.282Z,921.60
2019-02-02T13:20:58.372Z,921.61
2019-02-02T13:22:06.386Z,921.64
2019-02-02T13:23:14.548Z,921.63
2019-02-02T13:24:22.763Z,921.65
2019-02-02T13:25:30.583Z,921.66
2019-02-02T13:26:38.651Z,921.67
2019-02-02T13:27:47.144Z,921.68
2019-02-02T13:28:55.301Z,921.67
2019-02-02T13:30:02.813Z,921.67
2019-02-02T13:31:10.859Z,921.67
2019-02-02T13:32:19.155Z,921.66
2019-02-02T13:33:27.040Z,921.61
2019-02-02T13:34:35.042Z,921.59
2019-02-02T13:35:43.399Z,921.57
2019-02-02T13:36:51.163Z,921.58
2019-02-02T13:37:59.315Z,921.59
2019-02-02T13:39:07.276Z,921.60
2019-02-02T13:40:15.339Z,921.61
2019-02-02T13:41:23.392Z,921.63
2019-02-02T13:42:31.551Z,921.64
2019-02-02T13:43:39.561Z,921.67
2019-02-02T13:44:47.567Z,921.66
2019-02-02T13:45:55.631Z,921.64
2019-02-02T13:47:03.688Z,921.64
2019-02-02T13:48:11.854Z,921.63
2019-02-02T13:49:19.814Z,921.61
2019-02-02T13:50:27.955Z,921.57
2019-02-02T13:51:35.944Z,921.58
2019-02-02T13:52:43.990Z,921.50
2019-02-02T13:53:52.138Z,921.49
2019-02-02T13:55:00.085Z,921.42
2019-02-02T13:56:08.152Z,921.42
2019-02-02T13:57:16.211Z,921.41
2019-02-02T13:58:24.343Z,921.42
2019-02-02T13:59:32.331Z,921.42
2019-02-02T14:00:41.028Z,921.38
2019-02-02T14:01:49.637Z,921.40
2019-02-02T14:03:02.630Z,921.39
2019-02-02T14:04:04.632Z,921.36
2019-02-02T14:05:12.619Z,921.36
2019-02-02T14:06:20.665Z,921.35
2019-02-02T14:07:28.729Z,921.27
2019-02-02T14:08:36.897Z,921.25